createdAt,value
2022-11-28T00:01:00.295Z,-0.74
2022-11-28T00:03:35.233Z,-0.75
2022-11-28T00:06:10.275Z,-0.76
2022-11-28T00:08:45.344Z,-0.77
2022-11-28T00:11:20.247Z,-0.78
2022-11-28T00:13:59.291Z,-0.79
2022-11-28T00:16:34.410Z,-0.78
2022-11-28T00:19:14.047Z,-0.79
2022-11-28T00:21:48.921Z,-0.80
2022-11-28T00:24:21.887Z,-0.82
2022-11-28T00:26:54.976Z,-0.82
2022-11-28T00:29:43.092Z,-0.83
2022-11-28T00:32:17.976Z,-0.82
2022-11-28T00:34:52.585Z,-0.82
2022-11-28T00:37:27.542Z,-0.82
2022-11-28T00:40:00.660Z,-0.83
2022-11-28T00:42:39.392Z,-0.82
2022-11-28T00:45:13.882Z,-0.82
2022-11-28T00:48:00.170Z,-0.80
2022-11-28T00:50:33.394Z,-0.77
2022-11-28T00:53:08.097Z,-0.76
2022-11-28T00:55:43.095Z,-0.75
2022-11-28T00:58:18.062Z,-0.75
2022-11-28T01:00:51.408Z,-0.77
2022-11-28T01:03:24.374Z,-0.80
2022-11-28T01:05:59.142Z,-0.80
2022-11-28T01:08:33.795Z,-0.81
2022-11-28T01:11:14.455Z,-0.82
2022-11-28T01:13:47.350Z,-0.85
2022-11-28T01:16:20.534Z,-0.89
2022-11-28T01:18:55.364Z,-0.93
2022-11-28T01:21:30.124Z,-1.00
2022-11-28T01:24:03.175Z,-1.04
2022-11-28T01:26:36.274Z,-1.06
2022-11-28T01:29:11.875Z,-1.07
2022-11-28T01:31:46.675Z,-1.08
2022-11-28T01:34:21.676Z,-1.09
2022-11-28T01:36:56.511Z,-1.09
2022-11-28T01:39:29.493Z,-1.11
2022-11-28T01:42:02.520Z,-1.11
2022-11-28T01:44:35.684Z,-1.12
2022-11-28T01:47:08.868Z,-1.14
2022-11-28T01:49:42.576Z,-1.15
2022-11-28T01:52:20.265Z,-1.15
2022-11-28T01:54:59.261Z,-1.17
2022-11-28T01:57:34.073Z,-1.18
2022-11-28T02:00:17.378Z,-1.20
2022-11-28T02:03:00.020Z,-1.19
2022-11-28T02:05:33.608Z,-1.19
2022-11-28T02:08:10.275Z,-1.18
2022-11-28T02:10:59.949Z,-1.17
2022-11-28T02:13:52.981Z,-1.16
2022-11-28T02:16:34.809Z,-1.18
2022-11-28T02:19:43.271Z,-1.20
2022-11-28T02:22:23.474Z,-1.25
2022-11-28T02:25:24.766Z,-1.26
2022-11-28T02:28:30.016Z,-1.28
2022-11-28T02:31:24.745Z,-1.31
2022-11-28T02:34:01.604Z,-1.34
2022-11-28T02:36:48.163Z,-1.38
2022-11-28T02:40:00.798Z,-1.41
2022-11-28T02:42:55.270Z,-1.45
2022-11-28T02:45:58.612Z,-1.44
2022-11-28T02:48:40.026Z,-1.46
2022-11-28T02:51:28.857Z,-1.47
2022-11-28T02:53:58.910Z,-1.48
2022-11-28T02:56:27.398Z,-1.50
2022-11-28T02:58:55.938Z,-1.53
2022-11-28T03:01:35.021Z,-1.53
2022-11-28T03:04:09.339Z,-1.52
2022-11-28T03:06:52.415Z,-1.52
2022-11-28T03:09:32.768Z,-1.53
2022-11-28T03:12:26.595Z,-1.51
2022-11-28T03:15:06.748Z,-1.52
2022-11-28T03:17:56.002Z,-1.53
2022-11-28T03:20:53.333Z,-1.51
2022-11-28T03:23:43.767Z,-1.52
2022-11-28T03:26:27.022Z,-1.52
2022-11-28T03:29:13.998Z,-1.53
2022-11-28T03:31:57.861Z,-1.56
2022-11-28T03:34:38.793Z,-1.58
2022-11-28T03:37:20.805Z,-1.58
2022-11-28T03:40:02.335Z,-1.59
2022-11-28T03:42:41.884Z,-1.61
2022-11-28T03:45:26.010Z,-1.64
2022-11-28T03:48:04.150Z,-1.67
2022-11-28T03:50:53.519Z,-1.69
2022-11-28T03:53:36.765Z,-1.69
2022-11-28T03:56:39.281Z,-1.69
2022-11-28T03:59:24.781Z,-1.66
2022-11-28T04:02:12.684Z,-1.61
2022-11-28T04:05:02.545Z,-1.58
2022-11-28T04:07:51.033Z,-1.57
2022-11-28T04:10:29.722Z,-1.57
2022-11-28T04:13:20.587Z,-1.58
2022-11-28T04:16:03.988Z,-1.60
2022-11-28T04:19:02.369Z,-1.62
2022-11-28T04:21:35.306Z,-1.64
2022-11-28T04:24:32.202Z,-1.66
2022-11-28T04:27:12.511Z,-1.67
2022-11-28T04:30:03.532Z,-1.68
2022-11-28T04:32:40.784Z,-1.69
2022-11-28T04:35:32.488Z,-1.71
2022-11-28T04:38:03.931Z,-1.73
2022-11-28T04:40:38.781Z,-1.73
2022-11-28T04:43:21.484Z,-1.73
2022-11-28T04:46:05.516Z,-1.73
2022-11-28T04:48:39.132Z,-1.72
2022-11-28T04:51:23.567Z,-1.70
2022-11-28T04:54:15.894Z,-1.69
2022-11-28T04:57:14.791Z,-1.70
2022-11-28T04:59:50.337Z,-1.72
2022-11-28T05:02:26.567Z,-1.73
2022-11-28T05:05:01.542Z,-1.72
2022-11-28T05:07:36.368Z,-1.74
2022-11-28T05:10:13.133Z,-1.75
2022-11-28T05:12:48.022Z,-1.76
2022-11-28T05:15:22.551Z,-1.77
2022-11-28T05:17:57.628Z,-1.78
2022-11-28T05:20:32.875Z,-1.79
2022-11-28T05:23:20.965Z,-1.81
2022-11-28T05:25:54.120Z,-1.82
2022-11-28T05:28:27.220Z,-1.82
2022-11-28T05:31:01.550Z,-1.82
2022-11-28T05:33:34.755Z,-1.84
2022-11-28T05:36:13.555Z,-1.85
2022-11-28T05:38:48.642Z,-1.85
2022-11-28T05:41:28.390Z,-1.84
2022-11-28T05:43:58.538Z,-1.84
2022-11-28T05:46:31.752Z,-1.83
2022-11-28T05:49:04.891Z,-1.83
2022-11-28T05:51:39.611Z,-1.84
2022-11-28T05:54:12.313Z,-1.85
2022-11-28T05:56:42.528Z,-1.86
2022-11-28T05:59:14.727Z,-1.90
2022-11-28T06:01:43.332Z,-1.87
2022-11-28T06:04:12.134Z,-1.86
2022-11-28T06:06:40.559Z,-1.85
2022-11-28T06:09:09.022Z,-1.83
2022-11-28T06:11:37.418Z,-1.81
2022-11-28T06:14:11.199Z,-1.79
2022-11-28T06:16:41.683Z,-1.79
2022-11-28T06:19:13.742Z,-1.80
2022-11-28T06:21:42.468Z,-1.79
2022-11-28T06:24:11.259Z,-1.79
2022-11-28T06:26:44.187Z,-1.77
2022-11-28T06:29:17.270Z,-1.74
2022-11-28T06:31:52.193Z,-1.71
2022-11-28T06:34:21.301Z,-1.71
2022-11-28T06:36:50.107Z,-1.71
2022-11-28T06:39:18.660Z,-1.71
2022-11-28T06:41:47.071Z,-1.70
2022-11-28T06:44:16.626Z,-1.70
2022-11-28T06:46:49.434Z,-1.70
2022-11-28T06:49:23.784Z,-1.69
2022-11-28T06:51:53.319Z,-1.68
2022-11-28T06:54:22.348Z,-1.66
2022-11-28T06:56:50.915Z,-1.65
2022-11-28T06:59:19.454Z,-1.63
2022-11-28T07:01:47.946Z,-1.59
2022-11-28T07:04:16.821Z,-1.56
2022-11-28T07:06:45.247Z,-1.51
2022-11-28T07:09:13.885Z,-1.46
2022-11-28T07:11:42.905Z,-1.36
2022-11-28T07:14:11.727Z,-1.01
2022-11-28T07:16:40.381Z,-0.81
2022-11-28T07:19:11.373Z,-0.74
2022-11-28T07:21:39.798Z,0.03
2022-11-28T07:24:08.745Z,1.17
2022-11-28T07:26:38.355Z,2.17
2022-11-28T07:29:07.755Z,3.07
2022-11-28T07:31:37.500Z,4.10
2022-11-28T07:34:06.320Z,5.08
2022-11-28T07:36:34.721Z,5.88
2022-11-28T07:39:05.417Z,6.64
2022-11-28T07:41:33.902Z,7.31
2022-11-28T07:44:03.944Z,7.83
2022-11-28T07:46:34.429Z,8.38
2022-11-28T07:49:04.635Z,8.92
2022-11-28T07:51:34.130Z,9.62
2022-11-28T07:54:04.170Z,9.87
2022-11-28T07:57:04.571Z,9.96
2022-11-28T07:59:24.287Z,10.30
2022-11-28T08:01:54.219Z,10.66
2022-11-28T08:04:23.371Z,10.84
2022-11-28T08:06:51.918Z,11.23
2022-11-28T08:09:20.433Z,11.67
2022-11-28T08:11:51.656Z,11.94
2022-11-28T08:14:20.675Z,12.29
2022-11-28T08:16:49.946Z,12.63
2022-11-28T08:19:22.955Z,12.84
2022-11-28T08:21:53.432Z,13.40
2022-11-28T08:24:21.879Z,13.84
2022-11-28T08:26:50.359Z,12.14
2022-11-28T08:29:18.847Z,10.33
2022-11-28T08:31:47.420Z,8.71
2022-11-28T08:34:15.986Z,7.49
2022-11-28T08:36:44.388Z,6.45
2022-11-28T08:39:28.281Z,5.67
2022-11-28T08:41:57.862Z,4.98
2022-11-28T08:44:30.322Z,4.33
2022-11-28T08:47:02.477Z,3.92
2022-11-28T08:49:31.124Z,3.66
2022-11-28T08:52:00.176Z,3.40
2022-11-28T08:54:28.936Z,3.17
2022-11-28T08:56:57.859Z,2.95
2022-11-28T08:59:26.355Z,2.80
2022-11-28T09:01:56.334Z,2.66
2022-11-28T09:04:24.794Z,2.50
2022-11-28T09:06:53.605Z,2.37
2022-11-28T09:09:22.285Z,2.29
2022-11-28T09:11:50.845Z,2.27
2022-11-28T09:14:19.264Z,2.29
2022-11-28T09:16:48.952Z,2.32
2022-11-28T09:19:17.435Z,2.34
2022-11-28T09:21:45.850Z,2.27
2022-11-28T09:24:16.911Z,2.18
2022-11-28T09:26:45.466Z,2.09
2022-11-28T09:29:14.016Z,2.05
2022-11-28T09:31:47.095Z,2.04
2022-11-28T09:34:16.308Z,2.06
2022-11-28T09:36:44.764Z,2.04
2022-11-28T09:39:13.153Z,2.07
2022-11-28T09:41:54.719Z,2.10
2022-11-28T09:44:34.116Z,2.12
2022-11-28T09:47:20.069Z,2.10
2022-11-28T09:49:52.947Z,2.07
2022-11-28T09:52:35.737Z,2.12
2022-11-28T09:55:34.408Z,2.17
2022-11-28T09:58:19.473Z,2.16
2022-11-28T10:01:08.403Z,2.16
2022-11-28T10:04:03.406Z,2.16
2022-11-28T10:06:43.496Z,2.15
2022-11-28T10:09:30.745Z,2.14
2022-11-28T10:12:08.467Z,2.13
2022-11-28T10:15:00.366Z,2.13
2022-11-28T10:17:43.337Z,2.16
2022-11-28T10:20:18.214Z,2.21
2022-11-28T10:22:52.711Z,2.28
2022-11-28T10:25:44.528Z,2.33
2022-11-28T10:28:22.184Z,2.36
2022-11-28T10:31:04.735Z,2.41
2022-11-28T10:34:22.216Z,2.48
2022-11-28T10:37:15.029Z,2.48
2022-11-28T10:39:45.118Z,2.56
2022-11-28T10:42:24.212Z,2.64
2022-11-28T10:45:20.190Z,2.79
2022-11-28T10:51:12.865Z,3.09
2022-11-28T10:54:09.967Z,3.12
2022-11-28T10:56:59.554Z,3.07
2022-11-28T10:59:37.715Z,2.94
2022-11-28T11:02:57.001Z,2.79
2022-11-28T11:05:28.447Z,2.58
2022-11-28T11:08:02.797Z,2.49
2022-11-28T11:10:56.812Z,2.44
2022-11-28T11:13:30.805Z,2.41
2022-11-28T11:16:10.112Z,2.42
2022-11-28T11:18:41.557Z,2.47
2022-11-28T11:21:20.080Z,2.56
2022-11-28T11:23:50.404Z,2.67
2022-11-28T11:26:21.757Z,2.66
2022-11-28T11:28:51.393Z,2.54
2022-11-28T11:31:30.339Z,2.49
2022-11-28T11:34:05.153Z,2.50
2022-11-28T11:36:36.007Z,2.51
2022-11-28T11:39:08.418Z,2.52
2022-11-28T11:41:38.661Z,2.51
2022-11-28T11:44:15.938Z,2.49
2022-11-28T11:46:52.307Z,2.49
2022-11-28T11:49:40.620Z,2.52
2022-11-28T11:52:13.150Z,2.54
2022-11-28T11:54:47.496Z,2.51
2022-11-28T11:57:32.714Z,2.52
2022-11-28T12:00:19.690Z,2.51
2022-11-28T12:02:59.517Z,2.51
2022-11-28T12:06:12.244Z,2.54
2022-11-28T12:08:42.988Z,2.61
2022-11-28T12:11:15.009Z,2.66
2022-11-28T12:13:43.622Z,2.72
2022-11-28T12:16:34.000Z,2.76
2022-11-28T12:19:32.345Z,2.78
2022-11-28T12:22:08.802Z,2.77
2022-11-28T12:25:03.067Z,2.72
2022-11-28T12:27:50.101Z,2.82
2022-11-28T12:30:44.928Z,2.79
2022-11-28T12:33:31.496Z,2.75
2022-11-28T12:36:18.620Z,2.71
2022-11-28T12:39:06.269Z,2.67
2022-11-28T12:41:54.183Z,2.61
2022-11-28T12:44:33.135Z,2.58
2022-11-28T12:47:32.400Z,2.50
2022-11-28T12:50:22.721Z,2.46
2022-11-28T12:53:18.693Z,2.49
2022-11-28T12:56:05.119Z,2.48
2022-11-28T12:58:54.338Z,2.49
2022-11-28T13:01:28.784Z,2.49
2022-11-28T13:04:14.352Z,2.44
2022-11-28T13:06:57.869Z,2.46
2022-11-28T13:09:50.923Z,2.44
2022-11-28T13:12:44.056Z,2.44
2022-11-28T13:15:39.206Z,2.43
2022-11-28T13:18:38.208Z,2.41
2022-11-28T13:21:19.104Z,2.45
2022-11-28T13:24:03.751Z,2.46
2022-11-28T13:26:52.530Z,2.46
2022-11-28T13:30:13.507Z,2.44
2022-11-28T13:33:11.551Z,2.38
2022-11-28T13:35:47.266Z,2.34
2022-11-28T13:39:12.731Z,2.32
2022-11-28T13:47:53.740Z,2.22
2022-11-28T13:50:36.293Z,2.18
2022-11-28T13:53:07.845Z,2.14
2022-11-28T13:55:50.614Z,2.13
2022-11-28T13:58:31.858Z,2.10
2022-11-28T14:01:12.513Z,2.05
2022-11-28T14:03:54.100Z,1.99
2022-11-28T14:06:40.479Z,1.94
2022-11-28T14:09:13.193Z,1.87
2022-11-28T14:12:07.746Z,1.81
2022-11-28T14:15:21.657Z,1.74
2022-11-28T14:18:55.805Z,1.66
2022-11-28T14:21:54.414Z,1.57
2022-11-28T14:24:47.464Z,1.52
2022-11-28T14:27:27.072Z,1.47
2022-11-28T14:30:02.058Z,1.43
2022-11-28T14:32:36.055Z,1.40
2022-11-28T14:35:19.097Z,1.31
2022-11-28T14:37:59.816Z,1.32
2022-11-28T14:40:50.492Z,1.26
2022-11-28T14:43:30.792Z,1.20
2022-11-28T14:46:25.743Z,1.13
2022-11-28T14:49:00.462Z,1.14
2022-11-28T14:51:47.791Z,1.12
2022-11-28T14:54:22.352Z,1.10
2022-11-28T14:56:58.244Z,1.07
2022-11-28T14:59:34.561Z,1.02
2022-11-28T15:02:32.267Z,0.97
2022-11-28T15:05:30.523Z,0.92
2022-11-28T15:08:11.265Z,0.88
2022-11-28T15:10:58.773Z,0.85
2022-11-28T15:13:54.542Z,0.82
2022-11-28T15:16:24.371Z,0.78
2022-11-28T15:19:06.437Z,0.76
2022-11-28T15:21:45.124Z,0.75
2022-11-28T15:24:37.687Z,0.74
2022-11-28T15:27:08.943Z,0.72
2022-11-28T15:29:37.570Z,0.68
2022-11-28T15:32:06.560Z,0.67
2022-11-28T15:34:38.083Z,0.66
2022-11-28T15:37:15.740Z,0.65
2022-11-28T15:39:48.391Z,0.64
2022-11-28T15:42:27.186Z,0.62
2022-11-28T15:45:35.708Z,0.60
2022-11-28T15:48:07.807Z,0.61
2022-11-28T15:50:36.630Z,0.63
2022-11-28T15:53:17.877Z,0.65
2022-11-28T15:55:46.912Z,0.69
2022-11-28T15:58:30.991Z,0.71
2022-11-28T16:01:10.071Z,0.76
2022-11-28T16:04:02.550Z,0.78
2022-11-28T16:06:34.519Z,0.78
2022-11-28T16:09:07.326Z,0.78
2022-11-28T16:11:37.108Z,0.78
2022-11-28T16:14:11.489Z,0.79
2022-11-28T16:16:40.683Z,0.81
2022-11-28T16:19:32.373Z,0.81
2022-11-28T16:22:04.737Z,0.83
2022-11-28T16:24:44.887Z,0.84
2022-11-28T16:27:37.870Z,0.86
2022-11-28T16:30:32.130Z,0.87
2022-11-28T16:33:01.852Z,0.90
2022-11-28T16:35:41.667Z,0.91
2022-11-28T16:38:23.912Z,0.94
2022-11-28T16:41:03.452Z,0.96
2022-11-28T16:43:39.768Z,0.98
2022-11-28T16:46:23.429Z,0.96
2022-11-28T16:48:58.803Z,0.94
2022-11-28T16:51:41.578Z,0.95
2022-11-28T16:54:30.065Z,0.95
2022-11-28T16:57:14.989Z,0.96
2022-11-28T16:59:45.857Z,0.99
2022-11-28T17:02:23.526Z,1.03
2022-11-28T17:04:55.306Z,1.05
2022-11-28T17:07:25.425Z,1.08
2022-11-28T17:09:55.017Z,1.08
2022-11-28T17:12:24.374Z,1.10
2022-11-28T17:14:53.552Z,1.11
2022-11-28T17:17:24.349Z,1.13
2022-11-28T17:19:53.994Z,1.13
2022-11-28T17:22:40.967Z,1.14
2022-11-28T17:25:21.555Z,1.14
2022-11-28T17:27:51.145Z,1.16
2022-11-28T17:30:21.862Z,1.17
2022-11-28T17:32:53.594Z,1.17
2022-11-28T17:35:25.553Z,1.18
2022-11-28T17:37:55.617Z,1.18
2022-11-28T17:40:34.005Z,1.18
2022-11-28T17:43:05.741Z,1.18
2022-11-28T17:45:38.378Z,1.19
2022-11-28T17:48:10.993Z,1.18
2022-11-28T17:50:45.771Z,1.18
2022-11-28T17:53:19.609Z,1.19
2022-11-28T17:56:00.623Z,1.19
2022-11-28T17:58:31.921Z,1.19
2022-11-28T18:01:02.180Z,1.20
2022-11-28T18:03:31.790Z,1.22
2022-11-28T18:06:01.725Z,1.23
2022-11-28T18:08:31.107Z,1.25
2022-11-28T18:11:09.790Z,1.25
2022-11-28T18:13:43.414Z,1.28
2022-11-28T18:16:15.500Z,1.28
2022-11-28T18:18:44.882Z,1.30
2022-11-28T18:21:19.167Z,1.31
2022-11-28T18:23:51.371Z,1.32
2022-11-28T18:26:28.101Z,1.34
2022-11-28T18:28:58.393Z,1.35
2022-11-28T18:31:30.100Z,1.36
2022-11-28T18:34:04.789Z,1.36
2022-11-28T18:36:36.614Z,1.37
2022-11-28T18:39:09.366Z,1.37
2022-11-28T18:41:40.905Z,1.38
2022-11-28T18:44:12.174Z,1.39
2022-11-28T18:46:41.737Z,1.38
2022-11-28T18:49:12.858Z,1.38
2022-11-28T18:51:43.046Z,1.39
2022-11-28T18:54:17.643Z,1.41
2022-11-28T18:56:50.520Z,1.41
2022-11-28T18:59:21.032Z,1.42
2022-11-28T19:01:50.934Z,1.43
2022-11-28T19:04:21.598Z,1.44
2022-11-28T19:06:50.864Z,1.45
2022-11-28T19:09:19.660Z,1.46
2022-11-28T19:11:50.167Z,1.46
2022-11-28T19:14:22.068Z,1.46
2022-11-28T19:16:54.918Z,1.47
2022-11-28T19:19:25.096Z,1.48
2022-11-28T19:21:55.683Z,1.49
2022-11-28T19:24:27.495Z,1.48
2022-11-28T19:26:58.692Z,1.46
2022-11-28T19:29:30.467Z,1.46
2022-11-28T19:32:01.717Z,1.46
2022-11-28T19:34:33.228Z,1.44
2022-11-28T19:37:04.149Z,1.45
2022-11-28T19:39:34.717Z,1.46
2022-11-28T19:42:07.993Z,1.46
2022-11-28T19:44:38.219Z,1.46
2022-11-28T19:47:10.939Z,1.46
2022-11-28T19:49:43.101Z,1.46
2022-11-28T19:52:12.786Z,1.46
2022-11-28T19:54:43.356Z,1.45
2022-11-28T19:57:17.753Z,1.47
2022-11-28T19:59:56.411Z,1.47
2022-11-28T20:02:26.404Z,1.46
2022-11-28T20:04:56.832Z,1.45
2022-11-28T20:07:26.175Z,1.46
2022-11-28T20:10:00.246Z,1.45
2022-11-28T20:12:30.269Z,1.45
2022-11-28T20:14:59.774Z,1.46
2022-11-28T20:17:29.672Z,1.46
2022-11-28T20:19:59.374Z,1.45
2022-11-28T20:22:32.149Z,1.46
2022-11-28T20:25:02.133Z,1.46
2022-11-28T20:27:31.669Z,1.48
2022-11-28T20:30:07.048Z,1.49
2022-11-28T20:32:39.174Z,1.50
2022-11-28T20:35:09.802Z,1.51
2022-11-28T20:37:40.673Z,1.51
2022-11-28T20:40:10.711Z,1.52
2022-11-28T20:42:40.532Z,1.54
2022-11-28T20:45:10.905Z,1.53
2022-11-28T20:47:49.697Z,1.53
2022-11-28T20:50:20.853Z,1.52
2022-11-28T20:52:50.778Z,1.52
2022-11-28T20:55:21.151Z,1.53
2022-11-28T20:57:51.240Z,1.53
2022-11-28T21:00:26.351Z,1.53
2022-11-28T21:02:56.793Z,1.53
2022-11-28T21:05:26.289Z,1.52
2022-11-28T21:07:55.357Z,1.53
2022-11-28T21:10:25.265Z,1.53
2022-11-28T21:12:54.139Z,1.53
2022-11-28T21:15:23.148Z,1.54
2022-11-28T21:17:51.871Z,1.54
2022-11-28T21:20:20.224Z,1.54
2022-11-28T21:22:48.655Z,1.55
2022-11-28T21:25:18.026Z,1.56
2022-11-28T21:27:46.702Z,1.55
2022-11-28T21:30:15.522Z,1.55
2022-11-28T21:32:44.001Z,1.54
2022-11-28T21:35:12.412Z,1.54
2022-11-28T21:37:40.780Z,1.54
2022-11-28T21:40:09.837Z,1.54
2022-11-28T21:42:38.260Z,1.53
2022-11-28T21:45:07.074Z,1.53
2022-11-28T21:47:36.601Z,1.53
2022-11-28T21:50:05.446Z,1.53
2022-11-28T21:52:33.797Z,1.54
2022-11-28T21:55:02.164Z,1.55
2022-11-28T21:57:30.459Z,1.56
2022-11-28T21:59:59.237Z,1.57
2022-11-28T22:02:31.003Z,1.58
2022-11-28T22:05:00.367Z,1.58
2022-11-28T22:07:28.770Z,1.59
2022-11-28T22:09:57.150Z,1.60
2022-11-28T22:12:25.472Z,1.60
2022-11-28T22:14:53.827Z,1.61
2022-11-28T22:17:22.181Z,1.62
2022-11-28T22:19:52.052Z,1.62
2022-11-28T22:22:20.473Z,1.63
2022-11-28T22:24:48.853Z,1.63
2022-11-28T22:27:17.577Z,1.64
2022-11-28T22:29:46.454Z,1.63
2022-11-28T22:32:16.700Z,1.63
2022-11-28T22:34:45.543Z,1.64
2022-11-28T22:37:14.549Z,1.64
2022-11-28T22:39:43.147Z,1.63
2022-11-28T22:42:11.600Z,1.64
2022-11-28T22:44:40.053Z,1.63
2022-11-28T22:47:08.544Z,1.63
2022-11-28T22:49:36.947Z,1.64
2022-11-28T22:52:05.461Z,1.63
2022-11-28T22:54:34.113Z,1.64
2022-11-28T22:57:02.405Z,1.62
2022-11-28T22:59:33.932Z,1.62
2022-11-28T23:02:03.568Z,1.62
2022-11-28T23:04:32.124Z,1.61
2022-11-28T23:07:00.567Z,1.61
2022-11-28T23:09:29.016Z,1.62
2022-11-28T23:11:57.380Z,1.62
2022-11-28T23:14:25.925Z,1.63
2022-11-28T23:16:54.466Z,1.64
2022-11-28T23:19:22.930Z,1.64
2022-11-28T23:21:51.428Z,1.64
2022-11-28T23:24:21.833Z,1.65
2022-11-28T23:26:52.223Z,1.65
2022-11-28T23:29:21.498Z,1.65
2022-11-28T23:31:49.960Z,1.64
2022-11-28T23:34:18.451Z,1.64
2022-11-28T23:36:47.397Z,1.62
2022-11-28T23:39:18.873Z,1.60
2022-11-28T23:41:48.053Z,1.59
2022-11-28T23:44:18.339Z,1.59
2022-11-28T23:46:49.709Z,1.58
2022-11-28T23:49:18.015Z,1.56
2022-11-28T23:51:46.475Z,1.55
2022-11-28T23:54:15.094Z,1.54
2022-11-28T23:56:43.939Z,1.53
2022-11-28T23:59:13.572Z,1.52
